Accueil
METAR-TAF:

METAR-TAF

Aéroports :

Aéroport international Mehrabad

Téhéran, Iran

latitude: 35-41N, longitude: 051-21E, altitude: 1204 m

Observation

Le bulletin a été fait il y a 39 minutes, à 07:30 UTC
Vent 4 kt de sud/sud-est
Température 6°C
Humidité 45%
Pression 1020 hPa
Visibilité: 2200 m
brume sèche

METAR: OIII 230730Z 15004KT 2200 HZ NSC 06/M05 Q1020 A3013

Heure: 11:39 (08:09 UTC)

Prévision

Le bulletin a été fait il y a 2 heures et 39 minutes, à 05:30 UTC
Prévision valable du 23 à 06 UTC au 24 à 12 UTC
Vent 6 kt de est/sud-est
Visibilité: 3000 m
brume sèche
Evoluant progressivement
du 23 à 08 UTC au 23 à 10 UTC
Visibilité: 6000 m
Evoluant progressivement
du 24 à 03 UTC au 24 à 05 UTC
Visibilité: 4000 m
brume sèche
Evoluant progressivement
du 24 à 08 UTC au 24 à 10 UTC
Visibilité: 6000 m

TAF: OIII 230530Z 2306/2412 12006KT 3000 HZ NSC BECMG 2308/2310 6000 BECMG 2403/2405 4000 HZ BECMG 2408/2410 6000

Observations et prévisions météorologiques de plus de 4000 aéroports (messages METAR et TAF).

Les stations disponibles sont représentées par des disques jaunes et rouges sur la carte.

Passer la souris dessus pour voir le nom de la station.

Cliquer dessus pour voir les observations et prévisions météorologiques.

Pour changer de carte: cliquez sur les boutons verts avec une croix noire pour zoomer, sur le bouton vert avec un tiret pour effectuer un zoom arrière, ou sur les flèches vertes pour les cartes adjacentes.


METAR-TAF: